sensor_id;sensor_type;location;lat;lon;timestamp;pressure;altitude;pressure_sealevel;temperature;humidity
44131;BME280;29792;48.726;9.248;2023-05-02T00:01:07;96978.34;;;9.82;100.00
44131;BME280;29792;48.726;9.248;2023-05-02T00:03:33;96983.59;;;9.81;100.00
44131;BME280;29792;48.726;9.248;2023-05-02T00:05:59;96984.41;;;9.81;100.00
44131;BME280;29792;48.726;9.248;2023-05-02T00:08:24;96978.50;;;9.81;100.00
44131;BME280;29792;48.726;9.248;2023-05-02T00:10:49;96985.34;;;9.80;100.00
44131;BME280;29792;48.726;9.248;2023-05-02T00:13:15;96980.34;;;9.79;100.00
44131;BME280;29792;48.726;9.248;2023-05-02T00:15:40;96978.72;;;9.78;100.00
44131;BME280;29792;48.726;9.248;2023-05-02T00:18:05;96973.94;;;9.73;100.00
44131;BME280;29792;48.726;9.248;2023-05-02T00:20:30;96979.53;;;9.67;100.00
44131;BME280;29792;48.726;9.248;2023-05-02T00:22:56;96978.16;;;9.63;100.00
44131;BME280;29792;48.726;9.248;2023-05-02T00:25:21;96980.00;;;9.61;100.00
44131;BME280;29792;48.726;9.248;2023-05-02T00:27:46;96975.72;;;9.62;100.00
44131;BME280;29792;48.726;9.248;2023-05-02T00:30:14;96973.28;;;9.60;100.00
44131;BME280;29792;48.726;9.248;2023-05-02T00:32:40;96973.16;;;9.62;100.00
44131;BME280;29792;48.726;9.248;2023-05-02T00:35:06;96971.41;;;9.62;100.00
44131;BME280;29792;48.726;9.248;2023-05-02T00:37:31;96977.34;;;9.63;100.00
44131;BME280;29792;48.726;9.248;2023-05-02T00:39:57;96975.72;;;9.62;100.00
44131;BME280;29792;48.726;9.248;2023-05-02T00:42:22;96976.53;;;9.62;100.00
44131;BME280;29792;48.726;9.248;2023-05-02T00:44:47;96982.56;;;9.61;100.00
44131;BME280;29792;48.726;9.248;2023-05-02T00:47:14;96977.47;;;9.61;100.00
44131;BME280;29792;48.726;9.248;2023-05-02T00:49:39;96979.91;;;9.63;100.00
44131;BME280;29792;48.726;9.248;2023-05-02T00:52:05;96976.53;;;9.62;100.00
44131;BME280;29792;48.726;9.248;2023-05-02T00:54:31;96978.38;;;9.60;100.00
44131;BME280;29792;48.726;9.248;2023-05-02T00:56:57;96981.88;;;9.59;100.00
44131;BME280;29792;48.726;9.248;2023-05-02T00:59:23;96976.03;;;9.57;100.00
44131;BME280;29792;48.726;9.248;2023-05-02T01:07:45;96980.81;;;9.50;100.00
44131;BME280;29792;48.726;9.248;2023-05-02T01:12:57;96990.13;;;9.51;100.00
44131;BME280;29792;48.726;9.248;2023-05-02T01:15:24;96988.59;;;9.49;100.00
44131;BME280;29792;48.726;9.248;2023-05-02T01:17:51;96992.94;;;9.48;100.00
44131;BME280;29792;48.726;9.248;2023-05-02T01:20:20;97002.34;;;9.48;100.00
44131;BME280;29792;48.726;9.248;2023-05-02T01:22:47;96998.38;;;9.44;100.00
44131;BME280;29792;48.726;9.248;2023-05-02T01:25:21;97003.72;;;9.41;100.00
44131;BME280;29792;48.726;9.248;2023-05-02T01:28:01;97001.16;;;9.41;100.00
44131;BME280;29792;48.726;9.248;2023-05-02T01:30:30;97003.84;;;9.39;100.00
44131;BME280;29792;48.726;9.248;2023-05-02T01:32:58;97004.78;;;9.38;100.00
44131;BME280;29792;48.726;9.248;2023-05-02T01:35:26;97002.34;;;9.37;100.00
44131;BME280;29792;48.726;9.248;2023-05-02T01:37:52;97005.00;;;9.35;100.00
44131;BME280;29792;48.726;9.248;2023-05-02T01:40:20;97004.44;;;9.32;100.00
44131;BME280;29792;48.726;9.248;2023-05-02T01:42:50;96997.69;;;9.31;100.00
44131;BME280;29792;48.726;9.248;2023-05-02T01:45:17;96995.94;;;9.31;100.00
44131;BME280;29792;48.726;9.248;2023-05-02T01:47:44;96995.25;;;9.29;100.00
44131;BME280;29792;48.726;9.248;2023-05-02T01:50:11;96993.59;;;9.28;100.00
44131;BME280;29792;48.726;9.248;2023-05-02T01:52:40;97002.31;;;9.26;100.00
44131;BME280;29792;48.726;9.248;2023-05-02T01:55:08;97000.94;;;9.22;100.00
44131;BME280;29792;48.726;9.248;2023-05-02T01:57:37;97003.69;;;9.18;100.00
44131;BME280;29792;48.726;9.248;2023-05-02T02:00:04;97003.00;;;9.16;100.00
44131;BME280;29792;48.726;9.248;2023-05-02T02:02:32;96998.13;;;9.13;100.00
44131;BME280;29792;48.726;9.248;2023-05-02T02:04:59;97005.91;;;9.12;100.00
44131;BME280;29792;48.726;9.248;2023-05-02T02:07:26;96992.53;;;9.08;100.00
44131;BME280;29792;48.726;9.248;2023-05-02T02:09:52;97006.94;;;9.09;100.00
44131;BME280;29792;48.726;9.248;2023-05-02T02:12:26;97001.16;;;9.07;100.00
44131;BME280;29792;48.726;9.248;2023-05-02T02:14:59;97000.44;;;9.05;100.00
44131;BME280;29792;48.726;9.248;2023-05-02T02:17:35;97005.56;;;9.05;100.00
44131;BME280;29792;48.726;9.248;2023-05-02T02:20:04;97010.78;;;9.04;100.00
44131;BME280;29792;48.726;9.248;2023-05-02T02:22:33;97014.25;;;9.03;100.00
44131;BME280;29792;48.726;9.248;2023-05-02T02:25:03;97020.38;;;9.00;100.00
44131;BME280;29792;48.726;9.248;2023-05-02T02:27:30;97031.78;;;8.96;100.00
44131;BME280;29792;48.726;9.248;2023-05-02T02:29:56;97031.31;;;8.91;100.00
44131;BME280;29792;48.726;9.248;2023-05-02T02:32:21;97036.53;;;8.90;100.00
44131;BME280;29792;48.726;9.248;2023-05-02T02:34:46;97039.19;;;8.88;100.00
44131;BME280;29792;48.726;9.248;2023-05-02T02:37:19;97049.41;;;8.88;100.00
44131;BME280;29792;48.726;9.248;2023-05-02T02:39:54;97039.91;;;8.90;100.00
44131;BME280;29792;48.726;9.248;2023-05-02T02:42:38;97044.28;;;8.88;100.00
44131;BME280;29792;48.726;9.248;2023-05-02T02:47:53;97045.09;;;8.89;100.00
44131;BME280;29792;48.726;9.248;2023-05-02T02:50:26;97049.41;;;8.88;100.00
44131;BME280;29792;48.726;9.248;2023-05-02T02:52:59;97045.31;;;8.86;100.00
44131;BME280;29792;48.726;9.248;2023-05-02T03:00:37;97065.38;;;8.79;100.00
44131;BME280;29792;48.726;9.248;2023-05-02T03:03:04;97062.13;;;8.77;100.00
44131;BME280;29792;48.726;9.248;2023-05-02T03:05:32;97069.09;;;8.75;100.00
44131;BME280;29792;48.726;9.248;2023-05-02T03:07:58;97065.84;;;8.73;100.00
44131;BME280;29792;48.726;9.248;2023-05-02T03:10:24;97076.97;;;8.72;100.00
44131;BME280;29792;48.726;9.248;2023-05-02T03:12:49;97074.53;;;8.70;100.00
44131;BME280;29792;48.726;9.248;2023-05-02T03:18:18;97083.47;;;8.76;100.00
44131;BME280;29792;48.726;9.248;2023-05-02T03:20:43;97081.88;;;8.75;100.00
44131;BME280;29792;48.726;9.248;2023-05-02T03:23:09;97090.22;;;8.77;100.00
44131;BME280;29792;48.726;9.248;2023-05-02T03:25:34;97086.84;;;8.76;100.00
44131;BME280;29792;48.726;9.248;2023-05-02T03:28:00;97093.59;;;8.77;100.00
44131;BME280;29792;48.726;9.248;2023-05-02T03:30:25;97098.59;;;8.79;100.00
44131;BME280;29792;48.726;9.248;2023-05-02T03:32:50;97097.66;;;8.80;100.00
44131;BME280;29792;48.726;9.248;2023-05-02T03:35:16;97103.50;;;8.82;100.00
44131;BME280;29792;48.726;9.248;2023-05-02T03:37:42;97101.63;;;8.84;100.00
44131;BME280;29792;48.726;9.248;2023-05-02T03:40:07;97106.50;;;8.87;100.00
44131;BME280;29792;48.726;9.248;2023-05-02T03:42:33;97111.41;;;8.90;100.00
44131;BME280;29792;48.726;9.248;2023-05-02T03:45:07;97109.44;;;8.94;100.00
44131;BME280;29792;48.726;9.248;2023-05-02T03:47:33;97116.78;;;8.98;100.00
44131;BME280;29792;48.726;9.248;2023-05-02T03:49:58;97125.94;;;9.01;100.00
44131;BME280;29792;48.726;9.248;2023-05-02T03:52:24;97112.97;;;9.04;100.00
44131;BME280;29792;48.726;9.248;2023-05-02T03:54:50;97122.28;;;9.05;100.00
44131;BME280;29792;48.726;9.248;2023-05-02T03:57:16;97123.91;;;9.06;100.00
44131;BME280;29792;48.726;9.248;2023-05-02T03:59:41;97127.94;;;9.08;100.00
44131;BME280;29792;48.726;9.248;2023-05-02T04:02:09;97129.72;;;9.08;100.00
44131;BME280;29792;48.726;9.248;2023-05-02T04:04:35;97132.16;;;9.09;100.00
44131;BME280;29792;48.726;9.248;2023-05-02T04:07:00;97137.97;;;9.11;100.00
44131;BME280;29792;48.726;9.248;2023-05-02T04:09:26;97138.78;;;9.12;100.00
44131;BME280;29792;48.726;9.248;2023-05-02T04:11:51;97141.22;;;9.13;100.00
44131;BME280;29792;48.726;9.248;2023-05-02T04:14:17;97152.03;;;9.17;100.00
44131;BME280;29792;48.726;9.248;2023-05-02T04:16:49;97147.75;;;9.17;100.00
44131;BME280;29792;48.726;9.248;2023-05-02T04:19:15;97145.19;;;9.17;100.00
44131;BME280;29792;48.726;9.248;2023-05-02T04:21:42;97145.91;;;9.19;100.00
44131;BME280;29792;48.726;9.248;2023-05-02T04:24:08;97155.09;;;9.22;100.00
44131;BME280;29792;48.726;9.248;2023-05-02T04:26:33;97153.34;;;9.23;100.00
44131;BME280;29792;48.726;9.248;2023-05-02T04:28:58;97159.75;;;9.28;100.00
44131;BME280;29792;48.726;9.248;2023-05-02T04:31:24;97154.63;;;9.28;100.00
44131;BME280;29792;48.726;9.248;2023-05-02T04:33:49;97163.03;;;9.30;100.00
44131;BME280;29792;48.726;9.248;2023-05-02T04:36:14;97151.72;;;9.33;100.00
44131;BME280;29792;48.726;9.248;2023-05-02T04:38:40;97153.25;;;9.35;100.00
44131;BME280;29792;48.726;9.248;2023-05-02T04:41:05;97160.72;;;9.38;100.00
44131;BME280;29792;48.726;9.248;2023-05-02T04:43:31;97162.13;;;9.42;100.00
44131;BME280;29792;48.726;9.248;2023-05-02T04:45:56;97167.13;;;9.44;100.00
44131;BME280;29792;48.726;9.248;2023-05-02T04:48:22;97167.81;;;9.46;100.00
44131;BME280;29792;48.726;9.248;2023-05-02T04:50:48;97170.16;;;9.49;100.00
44131;BME280;29792;48.726;9.248;2023-05-02T04:53:13;97166.44;;;9.53;100.00
44131;BME280;29792;48.726;9.248;2023-05-02T04:55:38;97169.00;;;9.53;100.00
44131;BME280;29792;48.726;9.248;2023-05-02T04:58:04;97165.63;;;9.52;100.00
44131;BME280;29792;48.726;9.248;2023-05-02T05:00:29;97178.31;;;9.54;100.00
44131;BME280;29792;48.726;9.248;2023-05-02T05:02:54;97184.13;;;9.56;100.00
44131;BME280;29792;48.726;9.248;2023-05-02T05:05:20;97177.84;;;9.60;100.00
44131;BME280;29792;48.726;9.248;2023-05-02T05:07:45;97183.56;;;9.64;100.00
44131;BME280;29792;48.726;9.248;2023-05-02T05:10:12;97178.22;;;9.67;100.00
44131;BME280;29792;48.726;9.248;2023-05-02T05:12:37;97184.63;;;9.72;100.00
44131;BME280;29792;48.726;9.248;2023-05-02T05:15:02;97184.19;;;9.78;100.00
44131;BME280;29792;48.726;9.248;2023-05-02T05:17:28;97192.22;;;9.85;100.00
44131;BME280;29792;48.726;9.248;2023-05-02T05:19:53;97191.84;;;9.89;100.00
44131;BME280;29792;48.726;9.248;2023-05-02T05:22:18;97192.34;;;9.94;100.00
44131;BME280;29792;48.726;9.248;2023-05-02T05:24:52;97193.88;;;9.97;100.00
44131;BME280;29792;48.726;9.248;2023-05-02T05:27:18;97207.13;;;10.02;100.00
44131;BME280;29792;48.726;9.248;2023-05-02T05:29:43;97202.47;;;10.07;100.00
44131;BME280;29792;48.726;9.248;2023-05-02T05:32:08;97210.63;;;10.12;100.00
44131;BME280;29792;48.726;9.248;2023-05-02T05:34:34;97214.50;;;10.18;100.00
44131;BME280;29792;48.726;9.248;2023-05-02T05:36:59;97217.53;;;10.23;100.00
44131;BME280;29792;48.726;9.248;2023-05-02T05:39:25;97223.03;;;10.29;100.00
44131;BME280;29792;48.726;9.248;2023-05-02T05:41:50;97225.94;;;10.36;100.00
44131;BME280;29792;48.726;9.248;2023-05-02T05:44:16;97233.13;;;10.42;100.00
44131;BME280;29792;48.726;9.248;2023-05-02T05:46:42;97239.53;;;10.48;100.00
44131;BME280;29792;48.726;9.248;2023-05-02T05:49:07;97239.88;;;10.54;100.00
44131;BME280;29792;48.726;9.248;2023-05-02T05:51:32;97242.00;;;10.60;100.00
44131;BME280;29792;48.726;9.248;2023-05-02T05:53:57;97245.72;;;10.67;100.00
44131;BME280;29792;48.726;9.248;2023-05-02T05:56:23;97236.38;;;10.78;100.00
44131;BME280;29792;48.726;9.248;2023-05-02T05:58:48;97240.78;;;10.87;100.00
44131;BME280;29792;48.726;9.248;2023-05-02T06:01:13;97243.34;;;10.98;100.00
44131;BME280;29792;48.726;9.248;2023-05-02T06:03:39;97249.59;;;11.05;100.00
44131;BME280;29792;48.726;9.248;2023-05-02T06:06:04;97249.00;;;11.13;100.00
44131;BME280;29792;48.726;9.248;2023-05-02T06:08:30;97254.47;;;11.19;100.00
44131;BME280;29792;48.726;9.248;2023-05-02T06:10:55;97260.06;;;11.24;100.00
44131;BME280;29792;48.726;9.248;2023-05-02T06:13:20;97257.81;;;11.31;100.00
44131;BME280;29792;48.726;9.248;2023-05-02T06:15:45;97264.59;;;11.32;100.00
44131;BME280;29792;48.726;9.248;2023-05-02T06:18:11;97260.97;;;11.34;100.00
44131;BME280;29792;48.726;9.248;2023-05-02T06:20:36;97268.41;;;11.37;100.00
44131;BME280;29792;48.726;9.248;2023-05-02T06:23:01;97270.03;;;11.38;100.00
44131;BME280;29792;48.726;9.248;2023-05-02T06:25:26;97271.56;;;11.41;100.00
44131;BME280;29792;48.726;9.248;2023-05-02T06:27:52;97271.28;;;11.44;100.00
44131;BME280;29792;48.726;9.248;2023-05-02T06:30:17;97276.41;;;11.44;100.00
44131;BME280;29792;48.726;9.248;2023-05-02T06:32:42;97278.75;;;11.47;100.00
44131;BME280;29792;48.726;9.248;2023-05-02T06:35:09;97282.13;;;11.47;100.00
44131;BME280;29792;48.726;9.248;2023-05-02T06:37:35;97286.34;;;11.48;100.00
44131;BME280;29792;48.726;9.248;2023-05-02T06:40:01;97289.72;;;11.49;100.00
44131;BME280;29792;48.726;9.248;2023-05-02T06:42:26;97298.13;;;11.51;100.00
44131;BME280;29792;48.726;9.248;2023-05-02T06:44:51;97297.41;;;11.49;100.00
44131;BME280;29792;48.726;9.248;2023-05-02T06:47:17;97296.22;;;11.53;100.00
44131;BME280;29792;48.726;9.248;2023-05-02T06:49:42;97301.00;;;11.58;100.00
44131;BME280;29792;48.726;9.248;2023-05-02T06:52:07;97306.56;;;11.63;100.00
44131;BME280;29792;48.726;9.248;2023-05-02T06:54:32;97304.91;;;11.73;100.00
44131;BME280;29792;48.726;9.248;2023-05-02T06:56:58;97303.50;;;11.80;100.00
44131;BME280;29792;48.726;9.248;2023-05-02T06:59:23;97302.88;;;11.88;100.00
44131;BME280;29792;48.726;9.248;2023-05-02T07:01:49;97312.94;;;11.91;100.00
44131;BME280;29792;48.726;9.248;2023-05-02T07:04:14;97314.06;;;11.98;100.00
44131;BME280;29792;48.726;9.248;2023-05-02T07:06:39;97306.66;;;12.04;100.00
44131;BME280;29792;48.726;9.248;2023-05-02T07:09:04;97316.69;;;12.07;100.00
44131;BME280;29792;48.726;9.248;2023-05-02T07:11:30;97309.81;;;12.08;100.00
44131;BME280;29792;48.726;9.248;2023-05-02T07:13:55;97314.94;;;12.08;100.00
44131;BME280;29792;48.726;9.248;2023-05-02T07:16:20;97325.06;;;12.09;100.00
44131;BME280;29792;48.726;9.248;2023-05-02T07:18:46;97332.03;;;12.18;100.00
44131;BME280;29792;48.726;9.248;2023-05-02T07:21:11;97328.94;;;12.24;100.00
44131;BME280;29792;48.726;9.248;2023-05-02T07:23:37;97332.78;;;12.30;100.00
44131;BME280;29792;48.726;9.248;2023-05-02T07:26:03;97330.66;;;12.35;100.00
44131;BME280;29792;48.726;9.248;2023-05-02T07:28:29;97338.81;;;12.40;100.00
44131;BME280;29792;48.726;9.248;2023-05-02T07:30:55;97337.84;;;12.41;100.00
44131;BME280;29792;48.726;9.248;2023-05-02T07:33:20;97347.75;;;12.46;100.00
44131;BME280;29792;48.726;9.248;2023-05-02T07:35:45;97346.00;;;12.46;100.00
44131;BME280;29792;48.726;9.248;2023-05-02T07:38:10;97343.16;;;12.49;100.00
44131;BME280;29792;48.726;9.248;2023-05-02T07:40:36;97355.66;;;12.54;100.00
44131;BME280;29792;48.726;9.248;2023-05-02T07:43:01;97342.19;;;12.61;100.00
44131;BME280;29792;48.726;9.248;2023-05-02T07:45:27;97339.22;;;12.66;100.00
44131;BME280;29792;48.726;9.248;2023-05-02T07:47:52;97343.41;;;12.67;100.00
44131;BME280;29792;48.726;9.248;2023-05-02T07:50:17;97340.03;;;12.67;100.00
44131;BME280;29792;48.726;9.248;2023-05-02T07:52:43;97343.03;;;12.72;100.00
44131;BME280;29792;48.726;9.248;2023-05-02T07:55:08;97345.22;;;12.76;100.00
44131;BME280;29792;48.726;9.248;2023-05-02T07:57:33;97349.84;;;12.82;100.00
44131;BME280;29792;48.726;9.248;2023-05-02T07:59:59;97345.28;;;12.86;100.00
44131;BME280;29792;48.726;9.248;2023-05-02T08:02:24;97352.03;;;12.87;100.00
44131;BME280;29792;48.726;9.248;2023-05-02T08:04:50;97350.72;;;12.92;100.00
44131;BME280;29792;48.726;9.248;2023-05-02T08:07:15;97359.41;;;13.01;100.00
44131;BME280;29792;48.726;9.248;2023-05-02T08:09:41;97363.22;;;13.07;100.00
44131;BME280;29792;48.726;9.248;2023-05-02T08:12:06;97366.91;;;13.14;100.00
44131;BME280;29792;48.726;9.248;2023-05-02T08:14:32;97369.94;;;13.19;100.00
44131;BME280;29792;48.726;9.248;2023-05-02T08:16:58;97371.69;;;13.18;100.00
44131;BME280;29792;48.726;9.248;2023-05-02T08:19:23;97374.69;;;13.23;100.00
44131;BME280;29792;48.726;9.248;2023-05-02T08:21:49;97381.09;;;13.29;100.00
44131;BME280;29792;48.726;9.248;2023-05-02T08:24:14;97378.91;;;13.34;100.00
44131;BME280;29792;48.726;9.248;2023-05-02T08:26:39;97385.28;;;13.40;100.00
44131;BME280;29792;48.726;9.248;2023-05-02T08:29:05;97382.47;;;13.43;100.00
44131;BME280;29792;48.726;9.248;2023-05-02T08:31:30;97390.47;;;13.49;100.00
44131;BME280;29792;48.726;9.248;2023-05-02T08:33:56;97396.84;;;13.55;100.00
44131;BME280;29792;48.726;9.248;2023-05-02T08:36:21;97403.50;;;13.57;100.00
44131;BME280;29792;48.726;9.248;2023-05-02T08:38:47;97400.53;;;13.62;100.00
44131;BME280;29792;48.726;9.248;2023-05-02T08:41:14;97397.00;;;13.63;100.00
44131;BME280;29792;48.726;9.248;2023-05-02T08:43:41;97397.56;;;13.66;100.00
44131;BME280;29792;48.726;9.248;2023-05-02T08:46:08;97396.78;;;13.75;100.00
44131;BME280;29792;48.726;9.248;2023-05-02T08:48:35;97397.19;;;13.90;100.00
44131;BME280;29792;48.726;9.248;2023-05-02T08:51:02;97404.66;;;14.03;100.00
44131;BME280;29792;48.726;9.248;2023-05-02T08:53:29;97397.06;;;14.21;100.00
44131;BME280;29792;48.726;9.248;2023-05-02T08:55:56;97395.06;;;14.34;100.00
44131;BME280;29792;48.726;9.248;2023-05-02T08:58:21;97400.38;;;14.42;100.00
44131;BME280;29792;48.726;9.248;2023-05-02T09:00:47;97401.84;;;14.54;100.00
44131;BME280;29792;48.726;9.248;2023-05-02T09:03:29;97403.59;;;14.63;100.00
44131;BME280;29792;48.726;9.248;2023-05-02T09:08:28;97404.25;;;14.75;97.84
44131;BME280;29792;48.726;9.248;2023-05-02T09:10:54;97413.06;;;14.72;95.84
44131;BME280;29792;48.726;9.248;2023-05-02T09:13:39;97410.09;;;14.67;96.22
44131;BME280;29792;48.726;9.248;2023-05-02T09:16:10;97414.69;;;14.73;97.39
44131;BME280;29792;48.726;9.248;2023-05-02T09:18:46;97419.69;;;14.84;97.53
44131;BME280;29792;48.726;9.248;2023-05-02T09:21:14;97419.41;;;14.87;96.40
44131;BME280;29792;48.726;9.248;2023-05-02T09:23:51;97421.97;;;14.97;96.64
44131;BME280;29792;48.726;9.248;2023-05-02T09:28:50;97412.91;;;15.30;97.36
44131;BME280;29792;48.726;9.248;2023-05-02T09:31:21;97416.19;;;15.50;96.83
44131;BME280;29792;48.726;9.248;2023-05-02T09:33:47;97412.16;;;15.75;97.75
44131;BME280;29792;48.726;9.248;2023-05-02T09:36:17;97410.78;;;15.98;96.11
44131;BME280;29792;48.726;9.248;2023-05-02T09:38:43;97407.63;;;16.22;94.06
44131;BME280;29792;48.726;9.248;2023-05-02T09:41:09;97406.72;;;16.31;92.28
44131;BME280;29792;48.726;9.248;2023-05-02T09:43:35;97413.81;;;16.47;91.89
44131;BME280;29792;48.726;9.248;2023-05-02T09:46:06;97411.22;;;16.64;89.98
44131;BME280;29792;48.726;9.248;2023-05-02T09:48:55;97413.06;;;16.72;86.38
44131;BME280;29792;48.726;9.248;2023-05-02T09:51:24;97408.09;;;16.78;86.83
44131;BME280;29792;48.726;9.248;2023-05-02T09:53:51;97409.47;;;16.91;87.89
44131;BME280;29792;48.726;9.248;2023-05-02T09:56:17;97408.84;;;16.97;85.79
44131;BME280;29792;48.726;9.248;2023-05-02T09:58:43;97404.53;;;17.05;85.06
44131;BME280;29792;48.726;9.248;2023-05-02T10:01:13;97409.72;;;17.05;83.13
44131;BME280;29792;48.726;9.248;2023-05-02T10:03:40;97403.72;;;17.05;81.42
44131;BME280;29792;48.726;9.248;2023-05-02T10:06:07;97413.69;;;17.17;82.44
44131;BME280;29792;48.726;9.248;2023-05-02T10:08:33;97417.75;;;17.28;80.57
44131;BME280;29792;48.726;9.248;2023-05-02T10:10:59;97410.50;;;17.32;80.19
44131;BME280;29792;48.726;9.248;2023-05-02T10:13:27;97412.47;;;17.38;78.36
44131;BME280;29792;48.726;9.248;2023-05-02T10:16:02;97417.88;;;17.52;79.96
44131;BME280;29792;48.726;9.248;2023-05-02T10:18:37;97420.91;;;17.74;79.31
44131;BME280;29792;48.726;9.248;2023-05-02T10:21:08;97418.69;;;18.03;78.51
44131;BME280;29792;48.726;9.248;2023-05-02T10:23:34;97420.03;;;18.07;76.47
44131;BME280;29792;48.726;9.248;2023-05-02T10:26:00;97427.13;;;18.05;75.45
44131;BME280;29792;48.726;9.248;2023-05-02T10:28:26;97419.00;;;18.00;75.22
44131;BME280;29792;48.726;9.248;2023-05-02T10:30:52;97416.25;;;17.93;74.55
44131;BME280;29792;48.726;9.248;2023-05-02T10:33:19;97421.94;;;17.97;75.71
44131;BME280;29792;48.726;9.248;2023-05-02T10:35:45;97416.59;;;17.99;76.21
44131;BME280;29792;48.726;9.248;2023-05-02T10:38:12;97420.63;;;17.93;75.88
44131;BME280;29792;48.726;9.248;2023-05-02T10:40:40;97419.66;;;18.02;76.32
44131;BME280;29792;48.726;9.248;2023-05-02T10:43:07;97420.66;;;18.17;75.92
44131;BME280;29792;48.726;9.248;2023-05-02T10:45:34;97422.66;;;18.32;76.14
44131;BME280;29792;48.726;9.248;2023-05-02T10:48:19;97416.47;;;18.49;76.25
44131;BME280;29792;48.726;9.248;2023-05-02T10:50:47;97417.50;;;18.64;74.70
44131;BME280;29792;48.726;9.248;2023-05-02T10:53:33;97412.91;;;18.82;71.50
44131;BME280;29792;48.726;9.248;2023-05-02T10:56:16;97413.84;;;19.05;71.48
44131;BME280;29792;48.726;9.248;2023-05-02T10:58:46;97402.94;;;19.26;69.82
44131;BME280;29792;48.726;9.248;2023-05-02T11:04:10;97398.63;;;19.50;67.04
44131;BME280;29792;48.726;9.248;2023-05-02T11:11:47;97397.78;;;19.88;64.82
44131;BME280;29792;48.726;9.248;2023-05-02T11:19:26;97395.06;;;19.81;62.08
44131;BME280;29792;48.726;9.248;2023-05-02T11:21:52;97400.44;;;19.80;59.62
44131;BME280;29792;48.726;9.248;2023-05-02T11:24:38;97393.56;;;19.56;60.21
44131;BME280;29792;48.726;9.248;2023-05-02T11:29:57;97400.22;;;19.12;60.29
44131;BME280;29792;48.726;9.248;2023-05-02T11:32:24;97408.03;;;18.95;61.45
44131;BME280;29792;48.726;9.248;2023-05-02T11:34:50;97408.88;;;18.80;61.05
44131;BME280;29792;48.726;9.248;2023-05-02T11:37:17;97399.13;;;18.74;63.27
44131;BME280;29792;48.726;9.248;2023-05-02T11:39:43;97399.94;;;18.74;63.51
44131;BME280;29792;48.726;9.248;2023-05-02T11:42:08;97393.59;;;18.93;63.47
44131;BME280;29792;48.726;9.248;2023-05-02T11:44:57;97389.81;;;19.20;63.99
44131;BME280;29792;48.726;9.248;2023-05-02T11:47:26;97388.94;;;19.35;60.92
44131;BME280;29792;48.726;9.248;2023-05-02T11:49:54;97384.72;;;19.34;61.09
44131;BME280;29792;48.726;9.248;2023-05-02T11:52:21;97392.25;;;19.21;60.11
44131;BME280;29792;48.726;9.248;2023-05-02T11:54:47;97394.69;;;19.06;59.74
44131;BME280;29792;48.726;9.248;2023-05-02T11:57:13;97391.16;;;18.91;61.14
44131;BME280;29792;48.726;9.248;2023-05-02T11:59:50;97395.91;;;18.80;59.84
44131;BME280;29792;48.726;9.248;2023-05-02T12:02:16;97395.53;;;18.91;60.71
44131;BME280;29792;48.726;9.248;2023-05-02T12:04:44;97392.75;;;19.09;60.55
44131;BME280;29792;48.726;9.248;2023-05-02T12:07:09;97393.34;;;19.27;60.16
44131;BME280;29792;48.726;9.248;2023-05-02T12:09:35;97391.19;;;19.38;59.31
44131;BME280;29792;48.726;9.248;2023-05-02T12:12:00;97389.50;;;19.62;59.29
44131;BME280;29792;48.726;9.248;2023-05-02T12:14:30;97385.28;;;19.92;61.54
44131;BME280;29792;48.726;9.248;2023-05-02T12:16:58;97382.91;;;20.05;58.44
44131;BME280;29792;48.726;9.248;2023-05-02T12:19:27;97384.25;;;20.01;57.62
44131;BME280;29792;48.726;9.248;2023-05-02T12:21:52;97375.72;;;19.84;56.46
44131;BME280;29792;48.726;9.248;2023-05-02T12:24:17;97384.72;;;19.73;56.79
44131;BME280;29792;48.726;9.248;2023-05-02T12:26:43;97387.59;;;19.78;57.66
44131;BME280;29792;48.726;9.248;2023-05-02T12:29:08;97386.88;;;19.70;55.64
44131;BME280;29792;48.726;9.248;2023-05-02T12:31:33;97396.09;;;19.72;57.18
44131;BME280;29792;48.726;9.248;2023-05-02T12:33:59;97385.59;;;19.89;55.86
44131;BME280;29792;48.726;9.248;2023-05-02T12:36:26;97391.50;;;20.05;55.10
44131;BME280;29792;48.726;9.248;2023-05-02T12:38:56;97396.59;;;20.22;56.63
44131;BME280;29792;48.726;9.248;2023-05-02T12:41:34;97390.44;;;20.45;55.92
44131;BME280;29792;48.726;9.248;2023-05-02T12:44:00;97387.63;;;20.70;56.13
44131;BME280;29792;48.726;9.248;2023-05-02T12:46:25;97396.81;;;21.10;56.36
44131;BME280;29792;48.726;9.248;2023-05-02T12:49:06;97389.19;;;21.08;52.58
44131;BME280;29792;48.726;9.248;2023-05-02T12:51:33;97395.66;;;20.83;52.85
44131;BME280;29792;48.726;9.248;2023-05-02T12:53:59;97400.34;;;20.50;53.41
44131;BME280;29792;48.726;9.248;2023-05-02T12:56:24;97402.03;;;20.12;53.25
44131;BME280;29792;48.726;9.248;2023-05-02T12:58:55;97399.00;;;19.77;53.57
44131;BME280;29792;48.726;9.248;2023-05-02T13:01:23;97404.13;;;19.47;55.21
44131;BME280;29792;48.726;9.248;2023-05-02T13:03:49;97412.19;;;19.29;55.44
44131;BME280;29792;48.726;9.248;2023-05-02T13:06:15;97409.28;;;19.16;56.64
44131;BME280;29792;48.726;9.248;2023-05-02T13:08:40;97402.28;;;19.16;59.13
44131;BME280;29792;48.726;9.248;2023-05-02T13:11:05;97406.72;;;19.47;59.96
44131;BME280;29792;48.726;9.248;2023-05-02T13:13:30;97413.72;;;19.93;59.87
44131;BME280;29792;48.726;9.248;2023-05-02T13:15:56;97414.22;;;20.42;58.30
44131;BME280;29792;48.726;9.248;2023-05-02T13:18:22;97421.16;;;21.02;57.58
44131;BME280;29792;48.726;9.248;2023-05-02T13:20:47;97407.41;;;21.67;56.23
44131;BME280;29792;48.726;9.248;2023-05-02T13:23:12;97409.22;;;22.17;53.61
44131;BME280;29792;48.726;9.248;2023-05-02T13:25:38;97407.41;;;22.60;51.56
44131;BME280;29792;48.726;9.248;2023-05-02T13:28:03;97406.44;;;22.89;51.03
44131;BME280;29792;48.726;9.248;2023-05-02T13:30:28;97405.31;;;23.05;49.19
44131;BME280;29792;48.726;9.248;2023-05-02T13:32:54;97407.34;;;22.75;48.87
44131;BME280;29792;48.726;9.248;2023-05-02T13:35:22;97401.25;;;22.25;48.91
44131;BME280;29792;48.726;9.248;2023-05-02T13:37:47;97401.19;;;22.19;50.61